Time;durP1;ratioP1;P1;durP2;ratioP2;P2;SDS_P1;SDS_P2;PMS_P1;PMS_P2;Temp;Humidity;BMP_temperature;BMP_pressure;BME280_temperature;BME280_humidity;BME280_pressure;Samples;Min_cycle;Max_cycle;Signal;HPM_P1;HPM_P2
2022/12/06 00:01:37;;;;;;;;;7.75;6.50;;;;;6.29;81.00;102132.41;5049763;28;10874;-68
2022/12/06 00:04:07;;;;;;;;;5.50;5.00;;;;;6.27;81.04;102133.50;5051567;28;10997;-68
2022/12/06 00:06:40;;;;;;;;;5.00;3.75;;;;;6.28;81.16;102132.53;5052825;28;11688;-68
2022/12/06 00:09:07;;;;;;;;;4.50;4.50;;;;;6.25;81.03;102138.16;5051643;28;10732;-67
2022/12/06 00:11:35;;;;;;;;;2.00;2.00;;;;;6.22;80.92;102141.94;5040161;28;10766;-67
2022/12/06 00:14:05;;;;;;;;;6.50;4.25;;;;;6.22;81.00;102143.78;5048389;28;10717;-68
2022/12/06 00:16:33;;;;;;;;;2.00;2.00;;;;;6.23;81.79;102129.41;5046767;28;10871;-67
2022/12/06 00:19:00;;;;;;;;;2.00;2.00;;;;;6.25;81.66;102149.72;5052137;28;10971;-67
2022/12/06 00:21:33;;;;;;;;;4.00;4.00;;;;;6.26;80.80;102139.84;5040270;28;10814;-68
2022/12/06 00:24:02;;;;;;;;;3.00;2.00;;;;;6.22;81.34;102139.28;5041083;28;11001;-67
2022/12/06 00:26:29;;;;;;;;;1.00;1.00;;;;;6.26;81.12;102143.38;5052101;28;10966;-67
2022/12/06 00:28:59;;;;;;;;;1.75;1.75;;;;;6.28;81.25;102141.44;5034860;28;10970;-68
2022/12/06 00:31:28;;;;;;;;;6.50;5.50;;;;;6.23;81.49;102146.31;5048819;28;10880;-68
2022/12/06 00:33:56;;;;;;;;;1.00;1.00;;;;;6.20;81.47;102149.28;5052411;28;10906;-68
2022/12/06 00:36:27;;;;;;;;;5.00;5.00;;;;;6.15;81.24;102149.63;5048791;28;10911;-67
2022/12/06 00:38:54;;;;;;;;;2.00;2.00;;;;;6.14;81.64;102147.13;5039613;28;11011;-67
2022/12/06 00:41:23;;;;;;;;;2.00;1.75;;;;;6.15;81.70;102151.47;5043062;28;10799;-67
2022/12/06 00:43:51;;;;;;;;;2.00;2.00;;;;;6.13;80.90;102145.44;5051998;28;10874;-67
2022/12/06 00:46:23;;;;;;;;;1.00;1.00;;;;;6.14;81.26;102147.97;5051344;28;10794;-67
2022/12/06 00:48:51;;;;;;;;;5.00;1.00;;;;;6.15;81.76;102143.44;5046142;28;12952;-67
2022/12/06 00:51:19;;;;;;;;;2.00;2.00;;;;;6.08;81.19;102139.66;5044520;28;10774;-67
2022/12/06 00:53:46;;;;;;;;;3.00;3.00;;;;;6.09;81.88;102133.31;5040662;28;10887;-67
2022/12/06 00:56:14;;;;;;;;;2.00;1.25;;;;;6.10;81.69;102138.50;5045857;28;10973;-67
2022/12/06 00:58:41;;;;;;;;;2.00;2.00;;;;;6.12;81.90;102138.41;5052685;28;10860;-67
2022/12/06 01:01:12;;;;;;;;;2.50;0.25;;;;;6.14;82.22;102139.09;5051667;28;10820;-67
2022/12/06 01:03:40;;;;;;;;;3.50;3.00;;;;;6.12;81.80;102133.88;5041192;28;10871;-67
2022/12/06 01:06:10;;;;;;;;;1.75;1.75;;;;;6.16;81.46;102137.16;5045080;28;11029;-67
2022/12/06 01:08:38;;;;;;;;;2.00;2.00;;;;;6.13;81.21;102134.72;5045101;28;10805;-67
2022/12/06 01:11:05;;;;;;;;;1.75;1.75;;;;;6.09;80.82;102133.31;5051059;28;10922;-67
2022/12/06 01:13:32;;;;;;;;;1.50;1.00;;;;;6.07;81.09;102132.56;5049201;28;10799;-67
2022/12/06 01:16:17;;;;;;;;;1.00;1.00;;;;;6.07;82.14;102127.22;5038110;28;11475;-67
2022/12/06 01:18:45;;;;;;;;;1.00;1.00;;;;;6.10;81.34;102125.13;5042760;28;10841;-67
2022/12/06 01:21:15;;;;;;;;;1.00;1.00;;;;;6.11;81.04;102125.97;5029445;28;10833;-67
2022/12/06 01:23:43;;;;;;;;;1.00;0.25;;;;;6.06;81.49;102126.38;5043368;28;10867;-67
2022/12/06 01:26:19;;;;;;;;;2.00;1.50;;;;;6.07;81.53;102127.22;5047389;28;10784;-67
2022/12/06 01:28:46;;;;;;;;;2.00;1.00;;;;;6.06;81.49;102133.56;5040035;28;10795;-67
2022/12/06 01:31:14;;;;;;;;;1.50;1.00;;;;;6.06;81.37;102130.91;5050614;28;10870;-67
2022/12/06 01:33:41;;;;;;;;;1.00;1.00;;;;;6.07;81.73;102124.56;5051214;28;10705;-67
2022/12/06 01:36:08;;;;;;;;;0.50;0.50;;;;;6.11;81.29;102121.47;5050525;28;10856;-67
2022/12/06 01:38:34;;;;;;;;;1.00;1.00;;;;;6.12;81.38;102125.03;5047708;28;10916;-66
2022/12/06 01:41:01;;;;;;;;;0.25;0.25;;;;;6.10;81.21;102125.13;5044038;28;10892;-66
2022/12/06 01:43:32;;;;;;;;;1.00;1.00;;;;;6.05;81.09;102121.19;5047712;28;10852;-66
2022/12/06 01:46:19;;;;;;;;;3.25;1.25;;;;;6.04;81.57;102123.03;5044871;28;11002;-67
2022/12/06 01:48:49;;;;;;;;;0.75;0.75;;;;;6.02;80.68;102124.13;5049997;28;10801;-66
2022/12/06 01:51:16;;;;;;;;;1.00;1.00;;;;;6.01;80.35;102125.94;5046536;28;10817;-66
2022/12/06 01:53:46;;;;;;;;;3.25;1.25;;;;;6.00;80.48;102123.41;5048416;28;10988;-66
2022/12/06 01:56:13;;;;;;;;;0.25;0.25;;;;;5.99;80.81;102127.06;5025968;28;10924;-66
2022/12/06 01:58:41;;;;;;;;;4.00;0.50;;;;;5.95;80.07;102118.44;5046830;28;10724;-66
2022/12/06 02:01:08;;;;;;;;;0.50;0.50;;;;;5.92;80.37;102118.72;5050371;28;10894;-66
2022/12/06 02:03:36;;;;;;;;;2.00;1.00;;;;;5.90;80.59;102120.66;5050523;28;11019;-66
2022/12/06 02:06:05;;;;;;;;;1.75;0.50;;;;;5.88;80.92;102118.13;5045152;28;10833;-66
2022/12/06 02:08:32;;;;;;;;;2.00;1.00;;;;;5.87;81.07;102115.56;5046479;28;10940;-66
2022/12/06 02:11:01;;;;;;;;;1.00;1.00;;;;;5.89;81.50;102116.28;5046607;28;10866;-67
2022/12/06 02:13:30;;;;;;;;;3.75;1.00;;;;;5.88;81.41;102115.44;5047227;28;10845;-66
2022/12/06 02:16:32;;;;;;;;;1.00;0.50;;;;;5.90;81.00;102109.97;5042799;28;10703;-66
2022/12/06 02:19:42;;;;;;;;;1.00;1.00;;;;;5.89;81.04;102109.13;5035667;28;10957;-66
2022/12/06 02:22:50;;;;;;;;;1.75;1.00;;;;;5.87;80.86;102110.22;5038456;28;10902;-66
2022/12/06 02:26:01;;;;;;;;;1.75;0.75;;;;;5.86;80.83;102109.38;5000101;28;10815;-66
2022/12/06 02:28:46;;;;;;;;;0.00;0.00;;;;;5.92;81.72;102111.56;5034988;28;11049;-67
2022/12/06 02:31:25;;;;;;;;;1.00;1.00;;;;;5.92;81.27;102108.88;5020775;28;10884;-67
2022/12/06 02:34:07;;;;;;;;;1.00;1.00;;;;;5.96;80.94;102112.16;5023241;28;10949;-67
2022/12/06 02:36:42;;;;;;;;;1.75;1.00;;;;;5.89;80.65;102114.47;5043202;28;10860;-67
2022/12/06 02:39:22;;;;;;;;;0.00;0.00;;;;;5.93;81.23;102107.91;5030279;28;10792;-67
2022/12/06 02:42:21;;;;;;;;;3.50;2.00;;;;;5.92;81.06;102116.91;5036309;28;10875;-67
2022/12/06 02:45:07;;;;;;;;;1.00;1.00;;;;;5.94;81.12;102108.75;5035113;28;11005;-67
2022/12/06 02:47:36;;;;;;;;;2.00;1.00;;;;;5.93;80.87;102105.22;5044876;28;10861;-67
2022/12/06 02:50:09;;;;;;;;;0.75;0.75;;;;;5.92;80.91;102105.38;5045790;28;10802;-67
2022/12/06 02:52:40;;;;;;;;;1.25;0.25;;;;;5.93;80.81;102110.56;5054443;28;10876;-67
2022/12/06 02:55:09;;;;;;;;;0.25;0.25;;;;;5.95;81.04;102105.09;5051823;28;10791;-67
2022/12/06 02:57:48;;;;;;;;;1.00;1.00;;;;;5.97;81.39;102107.66;5045645;28;10956;-67
2022/12/06 03:00:45;;;;;;;;;0.00;0.00;;;;;5.97;80.77;102102.31;5046588;28;11547;-67
2022/12/06 03:03:30;;;;;;;;;0.00;0.00;;;;;5.93;80.87;102105.22;5026043;28;11644;-67
2022/12/06 03:05:59;;;;;;;;;1.00;0.00;;;;;5.97;80.93;102100.47;5046136;28;10940;-67
2022/12/06 03:08:38;;;;;;;;;0.00;0.00;;;;;6.01;80.81;102109.91;5047964;28;10875;-67
2022/12/06 03:11:04;;;;;;;;;2.00;1.00;;;;;6.02;80.74;102100.91;5047785;28;10941;-67
2022/12/06 03:13:53;;;;;;;;;0.00;0.00;;;;;6.01;81.14;102101.06;5050304;28;10806;-67
2022/12/06 03:16:27;;;;;;;;;0.00;0.00;;;;;6.01;80.87;102101.06;5050015;28;10651;-67
2022/12/06 03:19:18;;;;;;;;;0.00;0.00;;;;;6.00;80.91;102107.38;5095998;23;10813;-62
2022/12/06 03:21:56;;;;;;;;;1.00;0.00;;;;;5.94;80.34;102104.25;5087524;28;11487;-63
2022/12/06 03:24:24;;;;;;;;;0.75;0.75;;;;;5.96;80.79;102106.81;5084580;28;10848;-63
2022/12/06 03:26:53;;;;;;;;;2.00;1.00;;;;;5.94;80.35;102103.41;5091052;28;10771;-65
2022/12/06 03:29:22;;;;;;;;;2.00;0.50;;;;;5.93;80.53;102099.03;5088069;28;10762;-62
2022/12/06 03:31:51;;;;;;;;;0.00;0.00;;;;;5.97;80.44;102104.97;5068190;28;10780;-62
2022/12/06 03:34:25;;;;;;;;;0.25;0.25;;;;;6.00;80.71;102096.69;5068220;28;10791;-62
2022/12/06 03:36:52;;;;;;;;;1.25;1.00;;;;;5.99;80.25;102097.66;5074016;28;10862;-62
2022/12/06 03:39:27;;;;;;;;;0.00;0.00;;;;;6.00;80.56;102092.19;5071516;28;10868;-65
2022/12/06 03:41:57;;;;;;;;;2.00;1.00;;;;;5.97;79.84;102091.59;5087475;28;10762;-62
2022/12/06 03:44:25;;;;;;;;;0.00;0.00;;;;;5.89;80.35;102085.06;5091728;28;10771;-64
2022/12/06 03:46:59;;;;;;;;;1.00;0.00;;;;;5.91;80.58;102083.13;5080069;28;10660;-64
2022/12/06 03:49:37;;;;;;;;;1.50;0.00;;;;;5.89;80.84;102086.88;5082825;28;10717;-64
2022/12/06 03:52:04;;;;;;;;;0.50;0.50;;;;;5.85;80.43;102088.97;5080388;28;10777;-63
2022/12/06 03:54:30;;;;;;;;;3.50;0.00;;;;;5.83;80.17;102093.59;5084321;28;10708;-65
2022/12/06 03:56:56;;;;;;;;;0.50;0.50;;;;;5.86;80.63;102096.00;5072765;28;10848;-66
2022/12/06 03:59:23;;;;;;;;;2.00;2.00;;;;;5.88;80.44;102091.41;5069731;28;11563;-66
2022/12/06 04:01:49;;;;;;;;;1.00;1.00;;;;;5.90;80.29;102088.56;5063683;28;10808;-66
2022/12/06 04:04:16;;;;;;;;;0.00;0.00;;;;;5.91;80.34;102087.59;5074387;28;11606;-65
2022/12/06 04:06:42;;;;;;;;;1.25;1.25;;;;;5.89;79.87;102086.88;5073420;28;10869;-65
2022/12/06 04:11:53;;;;;;;;;0.25;0.25;;;;;5.84;79.91;102083.78;5074401;28;10976;-65
2022/12/06 04:14:20;;;;;;;;;0.00;0.00;;;;;5.83;80.03;102090.09;5082881;28;10899;-65
2022/12/06 04:19:31;;;;;;;;;0.00;0.00;;;;;5.82;79.67;102094.59;5069400;28;11040;-65
2022/12/06 04:24:42;;;;;;;;;1.00;1.00;;;;;5.74;80.22;102090.88;5067649;28;11617;-65
2022/12/06 04:40:53;;;;;;;;;0.00;0.00;;;;;5.73;79.61;102098.06;5071336;28;10967;-65
2022/12/06 04:46:05;;;;;;;;;0.00;0.00;;;;;5.83;80.03;102100.78;5083008;28;11654;-64
2022/12/06 04:48:32;;;;;;;;;2.00;1.00;;;;;5.83;79.38;102098.94;5084561;28;11496;-66
2022/12/06 04:50:58;;;;;;;;;0.50;0.50;;;;;5.84;79.52;102103.31;5079749;28;10834;-65
2022/12/06 04:53:25;;;;;;;;;0.00;0.00;;;;;5.84;79.18;102095.31;5086769;28;10938;-62
2022/12/06 04:55:51;;;;;;;;;2.00;2.00;;;;;5.87;79.47;102081.66;5076580;28;10861;-63
2022/12/06 04:58:18;;;;;;;;;9.00;2.00;;;;;5.88;79.71;102091.41;5084248;28;10835;-64
2022/12/06 05:00:44;;;;;;;;;0.00;0.00;;;;;5.89;79.19;102078.88;5061517;28;11837;-65
2022/12/06 05:03:13;;;;;;;;;2.00;1.00;;;;;5.89;79.47;102073.53;5051401;28;11174;-64
2022/12/06 05:05:41;;;;;;;;;0.00;0.00;;;;;5.90;79.63;102081.41;5068571;28;10976;-65
2022/12/06 05:08:08;;;;;;;;;1.00;1.00;;;;;5.86;79.45;102069.28;5061821;28;10936;-64
2022/12/06 05:10:35;;;;;;;;;2.00;1.00;;;;;5.88;79.61;102071.84;5070535;28;10841;-66
2022/12/06 05:13:02;;;;;;;;;1.25;1.00;;;;;5.90;80.02;102076.06;5053777;28;10943;-64
2022/12/06 05:15:29;;;;;;;;;0.50;0.50;;;;;5.90;79.06;102077.88;5066685;28;10850;-64
2022/12/06 05:17:55;;;;;;;;;0.25;0.25;;;;;5.88;79.44;102071.84;5072959;28;10850;-64
2022/12/06 05:20:22;;;;;;;;;0.25;0.25;;;;;5.86;79.29;102069.28;5063150;28;10885;-65
2022/12/06 05:22:49;;;;;;;;;1.75;0.75;;;;;5.89;79.75;102073.53;5072416;28;11056;-64
2022/12/06 05:25:15;;;;;;;;;0.50;0.50;;;;;5.89;79.50;102074.38;5084449;28;10763;-64
2022/12/06 05:27:43;;;;;;;;;0.00;0.00;;;;;5.88;79.77;102071.84;5083137;28;10881;-64
2022/12/06 05:30:10;;;;;;;;;1.00;1.00;;;;;5.87;79.58;102068.31;5083717;28;10882;-65
2022/12/06 05:32:38;;;;;;;;;1.00;1.00;;;;;5.85;78.87;102067.59;5067481;28;10912;-64
2022/12/06 05:35:06;;;;;;;;;0.50;0.50;;;;;5.85;79.57;102067.59;5070291;28;10948;-65
2022/12/06 05:37:32;;;;;;;;;2.00;0.25;;;;;5.83;78.97;102066.88;5076977;28;10772;-65
2022/12/06 05:39:59;;;;;;;;;0.75;0.75;;;;;5.83;79.52;102064.19;5068635;28;10763;-63
2022/12/06 05:42:26;;;;;;;;;1.00;1.00;;;;;5.82;79.29;102061.69;5074168;28;10953;-65
2022/12/06 05:44:52;;;;;;;;;2.00;2.00;;;;;5.80;78.99;102059.16;5074223;28;10967;-65
2022/12/06 05:47:19;;;;;;;;;1.00;1.00;;;;;5.79;79.06;102062.78;5068094;28;11067;-64
2022/12/06 05:49:45;;;;;;;;;1.50;0.50;;;;;5.79;78.80;102067.28;5071249;28;11659;-65
2022/12/06 05:52:11;;;;;;;;;1.50;1.50;;;;;5.75;79.16;102066.69;5074078;28;10774;-65
2022/12/06 05:54:38;;;;;;;;;1.00;1.00;;;;;5.73;79.32;102062.47;5087418;28;11596;-66
2022/12/06 05:57:04;;;;;;;;;1.00;1.00;;;;;5.72;79.04;102069.66;5069511;28;10851;-65
2022/12/06 05:59:31;;;;;;;;;2.00;1.00;;;;;5.68;79.07;102058.38;5066804;28;10801;-64
2022/12/06 06:01:57;;;;;;;;;4.00;1.00;;;;;5.67;78.95;102064.72;5063046;28;10950;-65
2022/12/06 06:04:23;;;;;;;;;1.00;0.00;;;;;5.66;78.65;102059.47;5075850;28;10918;-66
2022/12/06 06:06:50;;;;;;;;;1.00;1.00;;;;;5.64;79.13;102064.13;5069518;28;10994;-65
2022/12/06 06:09:16;;;;;;;;;3.50;0.25;;;;;5.63;78.92;102067.75;5070456;28;10958;-65
2022/12/06 06:11:43;;;;;;;;;2.00;2.00;;;;;5.60;78.53;102065.38;5074351;28;10933;-65
2022/12/06 06:14:09;;;;;;;;;0.25;0.25;;;;;5.57;78.72;102070.97;5071966;28;10964;-66
2022/12/06 06:16:36;;;;;;;;;4.00;1.00;;;;;5.55;79.29;102067.56;5084077;28;10912;-66
2022/12/06 06:19:02;;;;;;;;;1.50;1.50;;;;;5.51;78.82;102064.34;5081131;28;11026;-65
2022/12/06 06:21:29;;;;;;;;;1.00;1.00;;;;;5.46;78.26;102070.03;5052731;28;11990;-66
2022/12/06 06:23:56;;;;;;;;;0.00;0.00;;;;;5.41;78.68;102064.25;5062664;28;11213;-66
2022/12/06 06:26:23;;;;;;;;;0.50;0.50;;;;;5.37;78.34;102057.47;5076394;28;11824;-65
2022/12/06 06:28:49;;;;;;;;;4.00;1.00;;;;;5.33;78.56;102060.53;5082026;28;11779;-65
2022/12/06 06:31:15;;;;;;;;;1.25;1.25;;;;;5.32;79.01;102066.88;5073778;28;11086;-65
2022/12/06 06:33:42;;;;;;;;;1.75;0.75;;;;;5.29;79.03;102061.78;5081602;28;11090;-66
2022/12/06 06:36:09;;;;;;;;;0.25;0.25;;;;;5.26;79.00;102054.88;5068526;28;11174;-66
2022/12/06 06:38:35;;;;;;;;;1.50;1.25;;;;;5.23;78.95;102065.84;5066255;28;11185;-65
2022/12/06 06:41:03;;;;;;;;;2.50;2.50;;;;;5.18;78.89;102068.00;5077474;28;11146;-65
2022/12/06 06:43:30;;;;;;;;;1.00;1.00;;;;;5.16;78.52;102069.97;5061935;28;11098;-64
2022/12/06 06:46:01;;;;;;;;;1.50;1.50;;;;;5.15;79.05;102076.31;5067110;28;11416;-63
2022/12/06 06:48:32;;;;;;;;;4.00;1.00;;;;;5.13;78.95;102071.06;5071832;28;10984;-64
2022/12/06 06:51:08;;;;;;;;;2.00;0.50;;;;;5.10;79.25;102082.00;5063056;28;11529;-63
2022/12/06 06:53:36;;;;;;;;;4.00;3.50;;;;;5.05;79.03;102067.34;5072858;28;11156;-65
2022/12/06 06:56:03;;;;;;;;;1.25;1.25;;;;;5.03;79.38;102070.16;5072613;28;11647;-65
2022/12/06 06:58:30;;;;;;;;;2.50;2.50;;;;;5.00;78.83;102065.06;5069591;28;11453;-66
2022/12/06 07:00:59;;;;;;;;;3.00;2.00;;;;;4.97;79.36;102058.16;5072610;28;11441;-65
2022/12/06 07:03:27;;;;;;;;;1.00;1.00;;;;;4.93;79.12;102059.41;5067039;28;11576;-66
2022/12/06 07:06:02;;;;;;;;;4.75;3.50;;;;;4.91;79.16;102053.34;5070640;28;11436;-66
2022/12/06 07:08:30;;;;;;;;;3.00;2.00;;;;;4.87;79.29;102049.25;5061579;28;11527;-65
2022/12/06 07:10:57;;;;;;;;;2.00;2.00;;;;;4.84;79.08;102049.50;5058690;28;11557;-66
2022/12/06 07:13:25;;;;;;;;;1.75;1.75;;;;;4.83;79.50;102053.16;5058768;28;11490;-66
2022/12/06 07:15:52;;;;;;;;;2.75;1.50;;;;;4.82;79.10;102054.13;5051732;28;11486;-65
2022/12/06 07:18:19;;;;;;;;;4.50;2.50;;;;;4.80;79.37;102053.38;5066110;28;11547;-66
2022/12/06 07:20:47;;;;;;;;;1.00;1.00;;;;;4.80;79.21;102061.38;5065066;28;11456;-66
2022/12/06 07:23:14;;;;;;;;;3.50;2.50;;;;;4.81;78.76;102063.06;5052617;28;11418;-66
2022/12/06 07:25:40;;;;;;;;;2.00;2.00;;;;;4.80;79.54;102052.53;5064671;28;11432;-66
2022/12/06 07:28:06;;;;;;;;;4.00;4.00;;;;;4.78;79.00;102057.16;5058200;28;11443;-66
2022/12/06 07:30:33;;;;;;;;;1.75;1.75;;;;;4.74;78.89;102055.69;5071637;28;11518;-67
2022/12/06 07:33:00;;;;;;;;;3.00;3.00;;;;;4.74;79.17;102059.25;5069285;28;11439;-65
2022/12/06 07:35:26;;;;;;;;;6.25;5.00;;;;;4.73;79.19;102052.19;5060410;28;11444;-64
2022/12/06 07:38:12;;;;;;;;;7.50;6.25;;;;;4.71;79.28;102059.50;5056455;28;11484;-68
2022/12/06 07:40:39;;;;;;;;;7.00;5.50;;;;;4.74;79.26;102048.59;5064103;28;11525;-65
2022/12/06 07:46:18;;;;;;;;;6.00;5.00;;;;;4.70;79.71;102055.13;5038907;28;11423;-64
2022/12/06 07:48:44;;;;;;;;;7.00;7.00;;;;;4.68;78.61;102049.06;5054173;28;11541;-65
2022/12/06 07:51:11;;;;;;;;;7.50;6.00;;;;;4.69;79.54;102053.41;5070991;28;11438;-65
2022/12/06 07:53:37;;;;;;;;;8.25;7.50;;;;;4.69;78.56;102056.09;5066760;28;11444;-66
2022/12/06 07:56:05;;;;;;;;;8.00;8.00;;;;;4.70;79.34;102052.47;5060126;28;11501;-67
2022/12/06 07:58:32;;;;;;;;;9.25;7.75;;;;;4.71;78.80;102060.34;5076636;28;11463;-66
2022/12/06 08:00:58;;;;;;;;;10.00;7.00;;;;;4.73;79.00;102052.19;5070231;28;11446;-65
2022/12/06 08:03:25;;;;;;;;;8.50;8.50;;;;;4.76;79.51;102054.63;5071862;28;11416;-65
2022/12/06 08:05:54;;;;;;;;;8.50;8.50;;;;;4.80;79.70;102057.88;5058970;28;11442;-65
2022/12/06 08:08:21;;;;;;;;;9.50;9.00;;;;;4.83;79.57;102062.97;5059245;28;11424;-65
2022/12/06 08:10:53;;;;;;;;;12.00;11.00;;;;;4.85;79.12;102058.34;5058621;28;11473;-66
2022/12/06 08:13:20;;;;;;;;;13.00;11.00;;;;;4.86;79.47;102057.34;5052073;28;11464;-65
2022/12/06 08:15:46;;;;;;;;;11.25;11.00;;;;;4.88;79.26;102058.94;5051962;28;11457;-67
2022/12/06 08:18:13;;;;;;;;;8.50;8.50;;;;;4.91;78.86;102060.50;5057702;28;12191;-64
2022/12/06 08:20:39;;;;;;;;;15.50;15.25;;;;;4.95;79.38;102064.63;5057245;28;11438;-65
2022/12/06 08:23:06;;;;;;;;;11.00;11.00;;;;;4.97;79.42;102068.84;5069590;28;11456;-65
2022/12/06 08:25:32;;;;;;;;;10.50;10.50;;;;;5.04;79.65;102063.84;5070060;28;11551;-65
2022/12/06 08:27:59;;;;;;;;;9.25;8.50;;;;;5.12;79.11;102066.72;5056599;28;12208;-66
2022/12/06 08:30:25;;;;;;;;;9.50;9.00;;;;;5.19;79.23;102069.72;5063500;28;11456;-66
2022/12/06 08:32:52;;;;;;;;;6.50;6.00;;;;;5.26;79.35;102068.22;5067308;28;11461;-65
2022/12/06 08:35:18;;;;;;;;;5.25;5.00;;;;;5.34;79.37;102071.09;5066545;28;11437;-65
2022/12/06 08:37:45;;;;;;;;;4.50;4.50;;;;;5.38;79.04;102072.53;5081969;28;11429;-64
2022/12/06 08:40:12;;;;;;;;;5.75;5.75;;;;;5.43;78.91;102064.16;5065570;28;11201;-65
2022/12/06 08:42:40;;;;;;;;;7.75;7.75;;;;;5.47;78.65;102065.56;5065342;28;11553;-65
2022/12/06 08:45:08;;;;;;;;;8.75;5.75;;;;;5.51;78.64;102067.00;5066034;28;11197;-65
2022/12/06 08:47:34;;;;;;;;;3.00;3.00;;;;;5.56;78.39;102066.59;5073041;28;11132;-65
2022/12/06 08:50:01;;;;;;;;;5.25;5.00;;;;;5.62;78.54;102060.72;5073810;28;11190;-66
2022/12/06 08:52:27;;;;;;;;;5.50;4.25;;;;;5.66;78.69;102065.66;5081979;28;11939;-65
2022/12/06 08:54:54;;;;;;;;;5.00;4.50;;;;;5.69;78.49;102062.75;5067534;28;11166;-65
2022/12/06 08:57:20;;;;;;;;;8.75;4.00;;;;;5.73;78.64;102063.31;5072445;28;11269;-65
2022/12/06 08:59:47;;;;;;;;;5.75;5.75;;;;;5.78;78.02;102070.94;5073290;28;11042;-65
2022/12/06 09:02:13;;;;;;;;;1.75;1.75;;;;;5.82;78.08;102070.53;5080748;28;11096;-64
2022/12/06 09:04:40;;;;;;;;;5.00;5.00;;;;;5.85;77.58;102072.94;5068122;28;11149;-65
2022/12/06 09:07:07;;;;;;;;;6.00;5.00;;;;;5.90;78.58;102072.53;5057834;28;11116;-63
2022/12/06 09:09:37;;;;;;;;;9.75;8.00;;;;;5.91;78.16;102079.56;5063112;28;10959;-65
2022/12/06 09:12:04;;;;;;;;;11.25;9.00;;;;;5.93;77.46;102073.16;5079518;28;11209;-65
2022/12/06 09:14:30;;;;;;;;;12.25;10.75;;;;;5.97;77.66;102076.41;5068166;28;11213;-65
2022/12/06 09:16:57;;;;;;;;;14.25;14.00;;;;;5.98;77.52;102070.09;5077666;28;11576;-66
2022/12/06 09:19:23;;;;;;;;;13.75;13.00;;;;;5.99;77.75;102071.75;5070289;28;11481;-65
2022/12/06 09:21:49;;;;;;;;;13.00;12.25;;;;;6.02;77.42;102074.19;5077715;28;11584;-65
2022/12/06 09:24:19;;;;;;;;;11.25;10.50;;;;;6.07;78.07;102073.78;5066011;28;11218;-65
2022/12/06 09:26:45;;;;;;;;;12.00;11.75;;;;;6.11;77.75;102073.38;5068989;28;11481;-64
2022/12/06 09:29:13;;;;;;;;;13.00;12.00;;;;;6.20;77.55;102063.72;5080443;28;11144;-65
2022/12/06 09:31:39;;;;;;;;;13.00;12.00;;;;;6.26;77.25;102063.16;5084784;28;11568;-65
2022/12/06 09:34:07;;;;;;;;;18.75;16.50;;;;;6.30;76.93;102067.25;5070104;28;11574;-65
2022/12/06 09:36:40;;;;;;;;;14.00;12.00;;;;;6.35;76.95;102064.16;5086574;28;11740;-65
2022/12/06 09:39:12;;;;;;;;;13.75;12.00;;;;;6.39;76.67;102077.13;5072279;28;11611;-65
2022/12/06 09:42:09;;;;;;;;;12.00;9.00;;;;;6.37;76.38;102078.25;5073349;28;11494;-65
2022/12/06 09:45:02;;;;;;;;;8.00;7.50;;;;;6.43;76.91;102075.03;5057918;28;11965;-65
2022/12/06 09:47:57;;;;;;;;;8.75;8.00;;;;;6.51;76.22;102080.53;5051272;28;10939;-64
2022/12/06 09:51:01;;;;;;;;;7.50;7.50;;;;;6.52;76.18;102065.31;5054484;28;12245;-65
2022/12/06 09:53:41;;;;;;;;;12.00;10.75;;;;;6.50;75.33;102068.16;5068952;28;11068;-64
2022/12/06 09:56:24;;;;;;;;;11.75;9.50;;;;;6.45;75.38;102067.72;5081793;28;11042;-64
2022/12/06 09:58:59;;;;;;;;;6.25;4.25;;;;;6.41;75.63;102053.78;5078127;28;10960;-64
2022/12/06 10:01:38;;;;;;;;;7.25;5.50;;;;;6.47;75.96;102064.91;5071453;28;11059;-62
2022/12/06 10:04:14;;;;;;;;;5.75;5.00;;;;;6.55;75.81;102060.53;5066440;28;11060;-65
2022/12/06 10:06:52;;;;;;;;;4.50;4.00;;;;;6.66;75.85;102063.09;5066220;28;11023;-65
2022/12/06 10:09:31;;;;;;;;;7.75;6.50;;;;;6.77;75.42;102064.81;5070933;28;10876;-66
2022/12/06 10:12:33;;;;;;;;;9.50;8.25;;;;;6.85;74.67;102053.41;5085465;28;10957;-65
2022/12/06 10:15:22;;;;;;;;;8.00;6.25;;;;;6.93;74.69;102049.06;5083732;28;11030;-65
2022/12/06 10:17:54;;;;;;;;;8.50;7.00;;;;;7.01;74.25;102050.16;5062153;28;10877;-65
2022/12/06 10:20:27;;;;;;;;;11.00;11.00;;;;;7.00;73.96;102052.00;5069325;28;10975;-65
2022/12/06 10:23:12;;;;;;;;;7.25;6.00;;;;;6.91;73.92;102048.34;5077279;28;11016;-64
2022/12/06 10:26:11;;;;;;;;;9.75;8.25;;;;;6.86;73.29;102050.59;5078403;28;10786;-64
2022/12/06 10:28:56;;;;;;;;;7.00;5.00;;;;;6.88;73.63;102045.09;5073116;28;11073;-64
2022/12/06 10:31:56;;;;;;;;;2.00;2.00;;;;;6.85;73.47;102046.22;5069249;28;10798;-64
2022/12/06 10:34:44;;;;;;;;;2.50;2.50;;;;;6.81;72.88;102047.50;5070153;28;10685;-65
2022/12/06 10:37:42;;;;;;;;;3.25;3.25;;;;;6.83;73.86;102042.00;5051972;28;11332;-64
2022/12/06 10:40:56;;;;;;;;;1.50;1.50;;;;;6.90;73.86;102035.94;5079141;28;10717;-64
2022/12/06 10:43:43;;;;;;;;;2.50;1.25;;;;;6.90;73.54;102027.91;5055058;28;10578;-65
2022/12/06 10:49:25;;;;;;;;;2.50;2.50;;;;;6.89;73.32;102030.75;5051807;28;10718;-66
2022/12/06 10:52:21;;;;;;;;;1.00;1.00;;;;;6.86;72.94;102026.50;5062039;28;10605;-65
2022/12/06 10:55:10;;;;;;;;;2.50;2.50;;;;;6.84;73.27;102012.41;5066570;28;10687;-64
2022/12/06 10:58:14;;;;;;;;;1.00;1.00;;;;;6.87;73.59;102016.63;5064210;28;10730;-66
2022/12/06 11:00:56;;;;;;;;;2.50;1.00;;;;;6.94;73.73;102013.25;5064365;28;10551;-66
2022/12/06 11:03:33;;;;;;;;;2.00;2.00;;;;;7.00;73.06;102011.84;5051071;28;10602;-66
2022/12/06 11:06:29;;;;;;;;;2.00;2.00;;;;;7.10;73.08;102017.19;5064681;28;10683;-64
2022/12/06 11:09:17;;;;;;;;;2.00;1.00;;;;;7.16;73.00;102016.59;5063436;28;10715;-66
2022/12/06 11:11:44;;;;;;;;;2.00;1.25;;;;;7.22;72.46;102010.69;5069972;28;10552;-66
2022/12/06 11:14:37;;;;;;;;;2.25;1.75;;;;;7.22;72.16;102007.19;5073867;28;10591;-64
2022/12/06 11:17:13;;;;;;;;;1.00;1.00;;;;;7.23;72.73;102000.81;5060309;28;10479;-65
2022/12/06 11:19:44;;;;;;;;;1.25;1.25;;;;;7.31;71.80;102006.31;5065995;28;10443;-65
2022/12/06 11:22:30;;;;;;;;;0.75;0.00;;;;;7.36;71.61;102004.88;5061133;28;10436;-65
2022/12/06 11:25:13;;;;;;;;;0.00;0.00;;;;;7.35;72.17;102005.88;5074121;28;10372;-66
2022/12/06 11:27:58;;;;;;;;;0.25;0.25;;;;;7.32;71.48;101997.28;5065770;28;10453;-65
2022/12/06 11:30:27;;;;;;;;;1.50;1.00;;;;;7.31;73.00;102004.47;5060661;28;10488;-65
2022/12/06 11:32:54;;;;;;;;;0.50;0.50;;;;;7.31;72.62;102001.78;5051490;28;10397;-64
2022/12/06 11:35:24;;;;;;;;;0.00;0.00;;;;;7.32;72.87;101995.44;5057351;28;10435;-66
2022/12/06 11:37:56;;;;;;;;;1.00;1.00;;;;;7.29;72.82;102005.59;5070014;28;10515;-65
2022/12/06 11:40:33;;;;;;;;;0.00;0.00;;;;;7.25;72.98;102001.50;5073686;28;11174;-65
2022/12/06 11:43:03;;;;;;;;;1.00;0.00;;;;;7.22;73.38;101997.31;5090742;28;10289;-65
2022/12/06 11:45:38;;;;;;;;;0.00;0.00;;;;;7.17;73.85;101995.06;5070049;28;10410;-65
2022/12/06 11:48:17;;;;;;;;;2.00;2.00;;;;;7.18;74.00;101994.06;5055898;28;10443;-66
2022/12/06 11:50:47;;;;;;;;;1.00;1.00;;;;;7.17;75.00;101997.75;5076742;28;10508;-65
2022/12/06 11:53:26;;;;;;;;;0.00;0.00;;;;;7.21;74.45;101989.41;5083379;28;10685;-64
2022/12/06 11:55:59;;;;;;;;;1.75;1.75;;;;;7.21;75.35;101987.59;5075854;28;10407;-64
2022/12/06 11:58:39;;;;;;;;;3.50;1.00;;;;;7.22;74.84;101983.06;5066156;28;10611;-67
2022/12/06 12:01:13;;;;;;;;;0.00;0.00;;;;;7.17;75.34;101983.47;5064075;28;10541;-65
2022/12/06 12:03:42;;;;;;;;;0.25;0.00;;;;;7.13;75.65;101980.28;5071674;28;10484;-63
2022/12/06 12:06:19;;;;;;;;;0.00;0.00;;;;;7.08;75.42;101984.34;5085974;28;10496;-64
2022/12/06 12:08:56;;;;;;;;;1.00;1.00;;;;;7.08;75.62;101979.00;5092599;28;10477;-63
2022/12/06 12:11:27;;;;;;;;;1.00;1.00;;;;;7.10;76.00;101985.91;5074640;28;10359;-65
2022/12/06 12:14:00;;;;;;;;;0.00;0.00;;;;;7.10;75.71;101980.56;5072076;28;10504;-65
2022/12/06 12:16:41;;;;;;;;;0.50;0.50;;;;;7.09;75.63;101975.31;5072072;28;10554;-65
2022/12/06 12:19:26;;;;;;;;;0.00;0.00;;;;;7.11;75.70;101968.00;5091256;28;10676;-65
2022/12/06 12:21:54;;;;;;;;;2.50;0.00;;;;;7.13;76.09;101968.69;5055844;28;10451;-64
2022/12/06 12:24:42;;;;;;;;;0.00;0.00;;;;;7.20;76.02;101967.13;5074873;28;10407;-65
2022/12/06 12:27:33;;;;;;;;;0.00;0.00;;;;;7.23;76.10;101963.34;5076759;28;10560;-65